createdAt,value
2023-04-14T00:02:10.450Z,94.30
2023-04-14T00:04:39.045Z,94.37
2023-04-14T00:07:07.652Z,94.42
2023-04-14T00:09:36.464Z,95.00
2023-04-14T00:12:06.980Z,95.50
2023-04-14T00:14:37.900Z,95.47
2023-04-14T00:17:06.977Z,96.29
2023-04-14T00:19:35.807Z,96.53
2023-04-14T00:22:04.402Z,96.46
2023-04-14T00:24:33.196Z,97.05
2023-04-14T00:27:02.290Z,97.19
2023-04-14T00:29:30.706Z,97.55
2023-04-14T00:32:01.015Z,98.24
2023-04-14T00:34:32.771Z,98.86
2023-04-14T00:37:02.124Z,99.38
2023-04-14T00:39:31.687Z,99.94
2023-04-14T00:42:02.633Z,100.00
2023-04-14T00:44:31.501Z,100.00
2023-04-14T00:47:03.172Z,100.00
2023-04-14T00:49:32.065Z,100.00
2023-04-14T00:52:01.125Z,100.00
2023-04-14T00:54:31.488Z,100.00
2023-04-14T00:57:00.818Z,100.00
2023-04-14T00:59:30.088Z,100.00
2023-04-14T01:02:01.516Z,100.00
2023-04-14T01:04:44.540Z,100.00
2023-04-14T01:07:21.761Z,100.00
2023-04-14T01:09:51.330Z,100.00
2023-04-14T01:12:31.782Z,100.00
2023-04-14T01:15:08.887Z,100.00
2023-04-14T01:17:46.107Z,100.00
2023-04-14T01:20:24.372Z,100.00
2023-04-14T01:22:59.892Z,100.00
2023-04-14T01:25:58.134Z,100.00
2023-04-14T01:28:44.293Z,100.00
2023-04-14T01:31:21.555Z,100.00
2023-04-14T01:33:56.595Z,100.00
2023-04-14T01:36:34.798Z,100.00
2023-04-14T01:39:07.264Z,100.00
2023-04-14T01:41:38.608Z,100.00
2023-04-14T01:44:09.284Z,100.00
2023-04-14T01:46:42.638Z,100.00
2023-04-14T01:49:12.943Z,100.00
2023-04-14T01:51:45.873Z,100.00
2023-04-14T01:54:17.194Z,100.00
2023-04-14T01:56:47.811Z,100.00
2023-04-14T01:59:19.506Z,100.00
2023-04-14T02:01:53.610Z,100.00
2023-04-14T02:04:26.865Z,100.00
2023-04-14T02:06:57.812Z,100.00
2023-04-14T02:09:30.645Z,100.00
2023-04-14T02:12:00.972Z,100.00
2023-04-14T02:14:32.161Z,100.00
2023-04-14T02:17:03.754Z,100.00
2023-04-14T02:19:32.506Z,100.00
2023-04-14T02:22:05.142Z,100.00
2023-04-14T02:24:33.820Z,100.00
2023-04-14T02:27:08.970Z,100.00
2023-04-14T02:29:41.908Z,100.00
2023-04-14T02:32:18.531Z,100.00
2023-04-14T02:34:53.455Z,100.00
2023-04-14T02:37:26.395Z,100.00
2023-04-14T02:40:04.743Z,100.00
2023-04-14T02:42:38.603Z,100.00
2023-04-14T02:45:13.477Z,100.00
2023-04-14T02:47:46.170Z,100.00
2023-04-14T02:50:18.025Z,100.00
2023-04-14T02:52:57.884Z,100.00
2023-04-14T02:55:33.160Z,100.00
2023-04-14T02:58:01.912Z,100.00
2023-04-14T03:00:34.319Z,100.00
2023-04-14T03:03:06.920Z,100.00
2023-04-14T03:05:37.811Z,100.00
2023-04-14T03:08:13.452Z,100.00
2023-04-14T03:10:48.988Z,100.00
2023-04-14T03:13:22.187Z,100.00
2023-04-14T03:15:53.261Z,100.00
2023-04-14T03:18:24.470Z,100.00
2023-04-14T03:20:56.011Z,100.00
2023-04-14T03:23:27.553Z,100.00
2023-04-14T03:26:03.506Z,100.00
2023-04-14T03:28:36.271Z,100.00
2023-04-14T03:31:09.919Z,100.00
2023-04-14T03:33:57.464Z,100.00
2023-04-14T03:36:35.645Z,100.00
2023-04-14T03:39:07.204Z,100.00
2023-04-14T03:41:40.625Z,100.00
2023-04-14T03:44:15.921Z,100.00
2023-04-14T03:46:49.481Z,100.00
2023-04-14T03:49:21.527Z,100.00
2023-04-14T03:51:54.633Z,100.00
2023-04-14T03:54:25.644Z,100.00
2023-04-14T03:56:56.985Z,100.00
2023-04-14T03:59:29.281Z,100.00
2023-04-14T04:01:59.297Z,100.00
2023-04-14T04:04:31.408Z,100.00
2023-04-14T04:07:01.056Z,100.00
2023-04-14T04:09:31.209Z,100.00
2023-04-14T04:12:04.681Z,100.00
2023-04-14T04:14:38.477Z,100.00
2023-04-14T04:17:09.836Z,100.00
2023-04-14T04:19:40.621Z,100.00
2023-04-14T04:22:10.696Z,100.00
2023-04-14T04:24:41.641Z,100.00
2023-04-14T04:27:27.144Z,100.00
2023-04-14T04:30:01.845Z,100.00
2023-04-14T04:32:34.191Z,100.00
2023-04-14T04:35:06.347Z,100.00
2023-04-14T04:37:36.451Z,100.00
2023-04-14T04:40:05.528Z,100.00
2023-04-14T04:42:34.309Z,100.00
2023-04-14T04:45:03.876Z,100.00
2023-04-14T04:47:32.950Z,100.00
2023-04-14T04:50:01.540Z,100.00
2023-04-14T04:52:32.204Z,100.00
2023-04-14T04:55:00.877Z,100.00
2023-04-14T04:57:29.469Z,100.00
2023-04-14T04:59:58.556Z,100.00
2023-04-14T05:02:28.993Z,100.00
2023-04-14T05:04:57.861Z,100.00
2023-04-14T05:07:26.379Z,100.00
2023-04-14T05:09:57.222Z,100.00
2023-04-14T05:12:25.899Z,100.00
2023-04-14T05:14:55.732Z,100.00
2023-04-14T05:17:24.711Z,100.00
2023-04-14T05:19:53.180Z,100.00
2023-04-14T05:22:24.264Z,100.00
2023-04-14T05:24:53.718Z,100.00
2023-04-14T05:27:23.775Z,100.00
2023-04-14T05:29:53.797Z,100.00
2023-04-14T05:32:22.766Z,100.00
2023-04-14T05:34:51.467Z,100.00
2023-04-14T05:37:19.865Z,100.00
2023-04-14T05:39:48.590Z,100.00
2023-04-14T05:42:17.049Z,100.00
2023-04-14T05:44:47.580Z,100.00
2023-04-14T05:47:16.430Z,100.00
2023-04-14T05:49:45.157Z,100.00
2023-04-14T05:52:14.266Z,100.00
2023-04-14T05:54:43.979Z,100.00
2023-04-14T05:57:12.550Z,100.00
2023-04-14T05:59:41.165Z,100.00
2023-04-14T06:02:12.313Z,100.00
2023-04-14T06:04:42.340Z,100.00
2023-04-14T06:07:11.176Z,100.00
2023-04-14T06:09:41.865Z,100.00
2023-04-14T06:12:11.758Z,100.00
2023-04-14T06:14:42.698Z,100.00
2023-04-14T06:17:12.743Z,100.00
2023-04-14T06:19:41.702Z,100.00
2023-04-14T06:22:10.642Z,100.00
2023-04-14T06:24:39.081Z,100.00
2023-04-14T06:27:07.978Z,100.00
2023-04-14T06:29:36.639Z,100.00
2023-04-14T06:32:05.382Z,100.00
2023-04-14T06:34:35.725Z,100.00
2023-04-14T06:37:04.158Z,100.00
2023-04-14T06:39:33.232Z,99.93
2023-04-14T06:42:01.998Z,99.49
2023-04-14T06:44:31.342Z,99.06
2023-04-14T06:47:00.430Z,98.69
2023-04-14T06:49:29.638Z,97.47
2023-04-14T06:52:00.149Z,97.05
2023-04-14T06:54:31.887Z,96.86
2023-04-14T06:57:01.571Z,96.38
2023-04-14T06:59:30.607Z,95.69
2023-04-14T07:01:59.726Z,95.57
2023-04-14T07:04:28.371Z,94.90
2023-04-14T07:07:02.261Z,94.51
2023-04-14T07:09:31.006Z,94.27
2023-04-14T07:11:59.887Z,93.09
2023-04-14T07:14:28.793Z,92.25
2023-04-14T07:16:58.020Z,91.79
2023-04-14T07:19:26.619Z,91.07
2023-04-14T07:21:55.383Z,89.77
2023-04-14T07:24:25.199Z,89.22
2023-04-14T07:26:54.031Z,89.13
2023-04-14T07:29:22.903Z,88.82
2023-04-14T07:31:52.451Z,87.54
2023-04-14T07:34:21.018Z,87.10
2023-04-14T07:36:51.316Z,86.51
2023-04-14T07:39:23.829Z,86.01
2023-04-14T07:41:57.936Z,84.99
2023-04-14T07:44:26.948Z,83.64
2023-04-14T07:46:55.820Z,83.43
2023-04-14T07:49:26.118Z,83.52
2023-04-14T07:51:57.082Z,82.05
2023-04-14T07:54:26.216Z,81.48
2023-04-14T07:56:56.249Z,80.78
2023-04-14T07:59:24.916Z,79.90
2023-04-14T08:01:53.631Z,79.48
2023-04-14T08:04:22.481Z,79.30
2023-04-14T08:06:51.447Z,78.22
2023-04-14T08:09:20.545Z,77.88
2023-04-14T08:11:49.444Z,76.09
2023-04-14T08:14:19.480Z,76.75
2023-04-14T08:16:48.860Z,75.53
2023-04-14T08:19:18.041Z,74.31
2023-04-14T08:21:47.580Z,73.53
2023-04-14T08:24:16.614Z,72.29
2023-04-14T08:26:45.331Z,71.31
2023-04-14T08:29:14.454Z,70.18
2023-04-14T08:31:44.352Z,67.88
2023-04-14T08:34:14.167Z,68.08
2023-04-14T08:36:51.296Z,67.70
2023-04-14T08:39:21.369Z,66.34
2023-04-14T08:41:54.134Z,66.88
2023-04-14T08:44:23.472Z,66.01
2023-04-14T08:46:56.609Z,65.27
2023-04-14T08:49:33.641Z,64.84
2023-04-14T08:52:04.646Z,64.81
2023-04-14T08:54:34.143Z,64.81
2023-04-14T08:57:04.816Z,63.07
2023-04-14T08:59:34.063Z,63.27
2023-04-14T09:02:06.860Z,62.59
2023-04-14T09:04:37.876Z,62.68
2023-04-14T09:07:07.280Z,63.20
2023-04-14T09:09:36.515Z,61.58
2023-04-14T09:12:05.428Z,59.80
2023-04-14T09:14:35.147Z,60.24
2023-04-14T09:17:06.816Z,58.67
2023-04-14T09:19:36.699Z,58.83
2023-04-14T09:22:26.158Z,58.56
2023-04-14T09:24:55.113Z,57.28
2023-04-14T09:27:24.397Z,57.63
2023-04-14T09:29:55.502Z,56.58
2023-04-14T09:32:25.420Z,54.36
2023-04-14T09:34:56.719Z,54.99
2023-04-14T09:37:27.811Z,54.98
2023-04-14T09:39:57.631Z,55.12
2023-04-14T09:42:39.847Z,53.74
2023-04-14T09:45:10.011Z,54.58
2023-04-14T09:47:40.443Z,55.67
2023-04-14T09:50:10.620Z,55.17
2023-04-14T09:52:41.253Z,55.15
2023-04-14T09:55:13.061Z,52.90
2023-04-14T09:57:43.625Z,52.68
2023-04-14T10:00:21.851Z,51.19
2023-04-14T10:02:52.825Z,55.31
2023-04-14T10:05:22.622Z,56.49
2023-04-14T10:07:51.752Z,55.48
2023-04-14T10:10:20.687Z,53.59
2023-04-14T10:12:49.680Z,53.66
2023-04-14T10:15:18.701Z,51.49
2023-04-14T10:17:47.651Z,53.63
2023-04-14T10:20:19.273Z,52.49
2023-04-14T10:22:49.883Z,53.98
2023-04-14T10:25:20.369Z,54.86
2023-04-14T10:27:50.392Z,55.96
2023-04-14T10:30:19.265Z,57.31
2023-04-14T10:32:49.082Z,56.60
2023-04-14T10:35:21.746Z,56.28
2023-04-14T10:37:54.206Z,54.94
2023-04-14T10:40:23.745Z,53.78
2023-04-14T10:42:54.737Z,52.51
2023-04-14T10:45:24.118Z,52.69
2023-04-14T10:47:53.327Z,51.94
2023-04-14T10:50:26.410Z,52.19
2023-04-14T10:52:57.111Z,53.25
2023-04-14T10:55:28.107Z,53.44
2023-04-14T10:58:06.582Z,49.91
2023-04-14T11:00:39.781Z,50.10
2023-04-14T11:03:12.656Z,53.45
2023-04-14T11:05:46.357Z,51.04
2023-04-14T11:08:18.561Z,52.71
2023-04-14T11:10:51.530Z,51.67
2023-04-14T11:13:20.686Z,52.34
2023-04-14T11:15:57.942Z,51.36
2023-04-14T11:18:34.892Z,50.37
2023-04-14T11:21:07.097Z,51.01
2023-04-14T11:23:37.220Z,51.63
2023-04-14T11:26:07.174Z,51.30
2023-04-14T11:28:38.458Z,51.50
2023-04-14T11:31:09.055Z,53.55
2023-04-14T11:33:42.203Z,53.78
2023-04-14T11:36:13.706Z,55.20
2023-04-14T11:38:46.004Z,53.44
2023-04-14T11:41:17.359Z,53.70
2023-04-14T11:43:48.976Z,54.80
2023-04-14T11:46:21.449Z,53.81
2023-04-14T11:48:55.272Z,54.17
2023-04-14T11:51:32.775Z,51.23
2023-04-14T11:54:01.760Z,50.98
2023-04-14T11:56:32.546Z,49.86
2023-04-14T11:59:03.423Z,50.20
2023-04-14T12:01:33.722Z,49.08
2023-04-14T12:04:03.163Z,51.30
2023-04-14T12:06:37.410Z,51.72
2023-04-14T12:09:10.560Z,51.88
2023-04-14T12:11:39.693Z,53.13
2023-04-14T12:14:08.848Z,52.72
2023-04-14T12:16:38.677Z,53.27
2023-04-14T12:19:07.607Z,54.01
2023-04-14T12:21:38.517Z,55.08
2023-04-14T12:24:07.675Z,55.66
2023-04-14T12:26:38.317Z,55.65
2023-04-14T12:29:07.145Z,55.88
2023-04-14T12:31:36.540Z,56.35
2023-04-14T12:34:06.765Z,55.87
2023-04-14T12:39:09.926Z,55.97
2023-04-14T12:41:40.876Z,55.73
2023-04-14T12:44:20.787Z,55.67
2023-04-14T12:46:50.193Z,57.56
2023-04-14T12:49:32.898Z,57.05
2023-04-14T12:52:02.303Z,58.26
2023-04-14T12:54:52.158Z,57.14
2023-04-14T12:57:22.467Z,58.68
2023-04-14T12:59:52.236Z,60.11
2023-04-14T13:02:22.076Z,60.14
2023-04-14T13:04:51.303Z,58.54
2023-04-14T13:07:20.610Z,56.27
2023-04-14T13:09:51.990Z,53.82
2023-04-14T13:12:20.658Z,50.91
2023-04-14T13:14:49.240Z,52.54
2023-04-14T13:17:18.397Z,52.07
2023-04-14T13:19:47.311Z,51.34
2023-04-14T13:22:16.996Z,51.73
2023-04-14T13:24:45.750Z,52.80
2023-04-14T13:27:15.832Z,53.01
2023-04-14T13:29:44.589Z,54.03
2023-04-14T13:32:14.334Z,53.62
2023-04-14T13:34:44.440Z,54.62
2023-04-14T13:37:13.529Z,55.22
2023-04-14T13:39:42.286Z,56.46
2023-04-14T13:42:11.016Z,56.28
2023-04-14T13:44:41.689Z,55.45
2023-04-14T13:47:10.973Z,54.63
2023-04-14T13:49:39.910Z,55.20
2023-04-14T13:52:09.859Z,56.16
2023-04-14T13:54:38.623Z,56.99
2023-04-14T13:57:08.332Z,57.67
2023-04-14T13:59:36.887Z,57.34
2023-04-14T14:02:08.486Z,57.72
2023-04-14T14:04:37.851Z,56.42
2023-04-14T14:07:06.985Z,56.16
2023-04-14T14:09:36.057Z,56.70
2023-04-14T14:12:09.418Z,56.39
2023-04-14T14:14:38.493Z,56.06
2023-04-14T14:17:10.221Z,57.53
2023-04-14T14:19:38.732Z,57.55
2023-04-14T14:22:07.638Z,57.20
2023-04-14T14:24:36.311Z,56.35
2023-04-14T14:27:05.755Z,56.44
2023-04-14T14:29:35.298Z,56.58
2023-04-14T14:32:04.600Z,56.64
2023-04-14T14:34:34.910Z,57.32
2023-04-14T14:37:04.049Z,57.91
2023-04-14T14:39:33.013Z,57.92
2023-04-14T14:42:02.077Z,58.04
2023-04-14T14:44:30.886Z,59.05
2023-04-14T14:46:59.684Z,59.67
2023-04-14T14:49:28.364Z,60.36
2023-04-14T14:51:58.781Z,61.85
2023-04-14T14:54:27.349Z,62.13
2023-04-14T14:56:56.625Z,61.92
2023-04-14T14:59:25.326Z,62.55
2023-04-14T15:01:54.902Z,62.10
2023-04-14T15:04:23.784Z,62.07
2023-04-14T15:06:52.581Z,62.28
2023-04-14T15:09:22.766Z,61.79
2023-04-14T15:11:51.604Z,61.94
2023-04-14T15:14:20.650Z,62.00
2023-04-14T15:16:49.827Z,61.92
2023-04-14T15:19:18.348Z,62.65
2023-04-14T15:21:47.786Z,62.76
2023-04-14T15:24:16.728Z,63.31
2023-04-14T15:26:46.841Z,63.82
2023-04-14T15:29:17.336Z,64.34
2023-04-14T15:31:46.255Z,64.67
2023-04-14T15:34:15.149Z,65.20
2023-04-14T15:36:44.204Z,65.90
2023-04-14T15:39:13.773Z,66.06
2023-04-14T15:41:42.718Z,66.04
2023-04-14T15:44:12.640Z,65.53
2023-04-14T15:46:41.654Z,65.35
2023-04-14T15:49:10.962Z,65.15
2023-04-14T15:51:39.542Z,65.79
2023-04-14T15:54:08.352Z,66.04
2023-04-14T15:56:37.748Z,66.08
2023-04-14T15:59:07.118Z,66.51
2023-04-14T16:01:37.164Z,66.97
2023-04-14T16:04:06.642Z,67.01
2023-04-14T16:06:36.637Z,67.49
2023-04-14T16:09:07.079Z,68.21
2023-04-14T16:11:35.902Z,68.57
2023-04-14T16:14:05.320Z,69.11
2023-04-14T16:16:33.926Z,69.73
2023-04-14T16:19:04.030Z,70.83
2023-04-14T16:21:32.790Z,71.39
2023-04-14T16:24:01.535Z,71.48
2023-04-14T16:26:30.628Z,72.03
2023-04-14T16:28:59.177Z,72.23
2023-04-14T16:31:28.510Z,72.66
2023-04-14T16:33:57.053Z,73.22
2023-04-14T16:36:29.435Z,73.55
2023-04-14T16:38:58.137Z,73.81
2023-04-14T16:41:27.483Z,74.52
2023-04-14T16:43:55.914Z,74.82
2023-04-14T16:46:26.072Z,75.17
2023-04-14T16:48:55.538Z,75.90
2023-04-14T16:51:25.866Z,76.39
2023-04-14T16:53:57.248Z,76.61
2023-04-14T16:56:25.972Z,77.09
2023-04-14T16:58:56.004Z,77.60
2023-04-14T17:01:26.694Z,78.04
2023-04-14T17:03:56.062Z,78.62
2023-04-14T17:06:25.368Z,78.85
2023-04-14T17:08:55.489Z,79.36
2023-04-14T17:11:24.092Z,79.64
2023-04-14T17:13:53.337Z,79.68
2023-04-14T17:16:22.981Z,79.29
2023-04-14T17:18:52.195Z,80.07
2023-04-14T17:21:20.866Z,80.59
2023-04-14T17:23:49.742Z,81.00
2023-04-14T17:26:19.736Z,80.98
2023-04-14T17:28:48.490Z,81.11
2023-04-14T17:31:17.843Z,81.34
2023-04-14T17:33:47.198Z,81.54
2023-04-14T17:36:17.705Z,82.04
2023-04-14T17:38:46.779Z,81.83
2023-04-14T17:41:15.428Z,81.87
2023-04-14T17:43:46.982Z,82.10
2023-04-14T17:46:17.746Z,82.23
2023-04-14T17:48:46.520Z,82.51
2023-04-14T17:51:15.551Z,82.16
2023-04-14T17:53:44.292Z,82.13
2023-04-14T17:56:14.998Z,82.28
2023-04-14T17:58:44.695Z,83.14
2023-04-14T18:01:15.016Z,83.05
2023-04-14T18:03:43.957Z,84.05
2023-04-14T18:06:13.602Z,83.16
2023-04-14T18:08:42.736Z,83.02
2023-04-14T18:11:12.815Z,83.15
2023-04-14T18:13:41.478Z,84.02
2023-04-14T18:16:10.715Z,83.30
2023-04-14T18:18:40.638Z,83.30
2023-04-14T18:21:09.690Z,83.10
2023-04-14T18:23:38.558Z,83.25
2023-04-14T18:28:39.279Z,83.56
2023-04-14T18:31:10.778Z,83.78
2023-04-14T18:33:42.448Z,83.96
2023-04-14T18:36:10.890Z,84.01
2023-04-14T18:38:39.414Z,84.00
2023-04-14T18:41:08.408Z,84.24
2023-04-14T18:43:37.240Z,84.41
2023-04-14T18:46:05.818Z,84.31
2023-04-14T18:48:34.923Z,84.34
2023-04-14T18:51:08.325Z,84.87
2023-04-14T18:53:38.623Z,84.71
2023-04-14T18:56:09.251Z,84.50
2023-04-14T18:58:38.289Z,84.70
2023-04-14T19:01:09.896Z,84.63
2023-04-14T19:03:38.800Z,85.03
2023-04-14T19:06:08.814Z,84.77
2023-04-14T19:08:41.434Z,84.92
2023-04-14T19:11:11.891Z,84.85
2023-04-14T19:13:44.330Z,84.75
2023-04-14T19:16:14.786Z,85.20
2023-04-14T19:18:45.409Z,88.26
2023-04-14T19:21:19.201Z,85.80
2023-04-14T19:23:48.791Z,85.43
2023-04-14T19:26:18.568Z,85.59
2023-04-14T19:28:47.600Z,85.46
2023-04-14T19:31:17.613Z,85.44
2023-04-14T19:33:47.144Z,85.19
2023-04-14T19:36:18.689Z,85.64
2023-04-14T19:38:47.496Z,85.96
2023-04-14T19:41:16.473Z,85.94
2023-04-14T19:43:45.870Z,86.15
2023-04-14T19:46:15.509Z,86.17
2023-04-14T19:48:46.494Z,86.53
2023-04-14T19:51:16.453Z,86.17
2023-04-14T19:53:46.657Z,86.40
2023-04-14T19:56:15.651Z,86.62
2023-04-14T19:58:44.558Z,86.32
2023-04-14T20:01:14.230Z,86.66
2023-04-14T20:04:07.454Z,86.69
2023-04-14T20:06:34.479Z,86.92
2023-04-14T20:09:04.392Z,87.13
2023-04-14T20:11:33.247Z,86.85
2023-04-14T20:14:02.091Z,87.24
2023-04-14T20:16:30.806Z,87.41
2023-04-14T20:18:59.630Z,87.40
2023-04-14T20:21:30.565Z,88.00
2023-04-14T20:24:01.314Z,88.05
2023-04-14T20:26:29.994Z,88.12
2023-04-14T20:28:58.622Z,88.59
2023-04-14T20:31:27.551Z,88.58
2023-04-14T20:33:57.492Z,88.92
2023-04-14T20:36:25.924Z,89.04
2023-04-14T20:38:54.383Z,88.78
2023-04-14T20:41:24.476Z,89.49
2023-04-14T20:43:53.345Z,89.30
2023-04-14T20:46:22.668Z,89.06
2023-04-14T20:48:51.169Z,89.62
2023-04-14T20:51:20.094Z,89.27
2023-04-14T20:53:48.980Z,89.37
2023-04-14T20:56:17.870Z,89.64
2023-04-14T20:58:47.839Z,89.62
2023-04-14T21:01:16.809Z,89.66
2023-04-14T21:03:45.350Z,89.68
2023-04-14T21:06:14.854Z,89.37
2023-04-14T21:08:44.173Z,89.03
2023-04-14T21:11:18.097Z,89.40
2023-04-14T21:15:24.974Z,89.63
2023-04-14T21:16:38.119Z,89.95
2023-04-14T21:19:07.031Z,90.13
2023-04-14T21:21:37.834Z,90.23
2023-04-14T21:24:07.174Z,90.06
2023-04-14T21:26:35.627Z,90.18
2023-04-14T21:29:05.647Z,90.21
2023-04-14T21:31:34.235Z,89.76
2023-04-14T21:34:04.792Z,90.45
2023-04-14T21:36:33.368Z,90.14
2023-04-14T21:39:02.337Z,90.71
2023-04-14T21:41:33.101Z,90.81
2023-04-14T21:44:01.987Z,90.52
2023-04-14T21:46:35.214Z,90.90
2023-04-14T21:49:04.085Z,90.44
2023-04-14T21:51:33.750Z,90.65
2023-04-14T21:54:02.315Z,90.79
2023-04-14T21:56:31.199Z,90.90
2023-04-14T21:58:59.844Z,90.75
2023-04-14T22:01:31.724Z,90.78
2023-04-14T22:04:02.469Z,90.98
2023-04-14T22:06:35.462Z,90.83
2023-04-14T22:09:06.255Z,91.17
2023-04-14T22:11:34.940Z,91.05
2023-04-14T22:14:05.509Z,90.91
2023-04-14T22:16:37.523Z,91.40
2023-04-14T22:19:05.799Z,94.33
2023-04-14T22:21:35.091Z,91.23
2023-04-14T22:24:04.680Z,91.50
2023-04-14T22:26:33.210Z,91.87
2023-04-14T22:29:02.015Z,91.83
2023-04-14T22:31:31.345Z,92.00
2023-04-14T22:34:01.972Z,92.32
2023-04-14T22:36:30.619Z,92.03
2023-04-14T22:38:59.627Z,92.15
2023-04-14T22:41:28.004Z,91.79
2023-04-14T22:43:56.564Z,92.26
2023-04-14T22:46:25.596Z,92.40
2023-04-14T22:48:57.113Z,92.22
2023-04-14T22:51:28.798Z,92.65
2023-04-14T22:53:57.813Z,92.97
2023-04-14T22:56:28.016Z,93.05
2023-04-14T22:58:58.995Z,93.49
2023-04-14T23:01:29.244Z,93.80
2023-04-14T23:03:57.662Z,94.24
2023-04-14T23:06:27.579Z,94.79
2023-04-14T23:08:56.363Z,95.38
2023-04-14T23:11:25.296Z,95.66
2023-04-14T23:13:53.783Z,96.17
2023-04-14T23:16:22.388Z,96.70
2023-04-14T23:18:52.534Z,96.87
2023-04-14T23:21:22.429Z,97.22
2023-04-14T23:23:53.686Z,96.98
2023-04-14T23:26:22.983Z,98.10
2023-04-14T23:28:53.127Z,97.89
2023-04-14T23:31:22.129Z,98.30
2023-04-14T23:33:52.961Z,98.18
2023-04-14T23:36:21.639Z,99.07
2023-04-14T23:38:50.424Z,99.16
2023-04-14T23:41:20.204Z,99.40
2023-04-14T23:43:49.692Z,100.00
2023-04-14T23:46:18.435Z,100.00
2023-04-14T23:48:47.515Z,100.00
2023-04-14T23:51:20.780Z,100.00
2023-04-14T23:53:50.963Z,100.00
2023-04-14T23:56:21.237Z,100.00
2023-04-14T23:58:49.814Z,100.00
